Time;durP1;ratioP1;P1;durP2;ratioP2;P2;SDS_P1;SDS_P2;PMS_P1;PMS_P2;Temp;Humidity;BMP_temperature;BMP_pressure;BME280_temperature;BME280_humidity;BME280_pressure;Samples;Min_cycle;Max_cycle;Signal;HPM_P1;HPM_P2
2021/10/13 00:00:34;;;;;;;13.80;5.85;;;;;;;;;;6203587;28;20053;-81
2021/10/13 00:03:36;;;;;;;10.32;4.68;;;;;;;;;;6173739;28;20057;-80
2021/10/13 00:06:37;;;;;;;10.40;4.18;;;;;;;;;;6224070;28;20126;-81
2021/10/13 00:09:39;;;;;;;7.80;3.85;;;;;;;;;;6193141;28;20043;-80
2021/10/13 00:12:40;;;;;;;7.45;4.13;;;;;;;;;;6190309;28;20460;-81
2021/10/13 00:15:42;;;;;;;8.60;4.70;;;;;;;;;;6191682;28;20046;-79
2021/10/13 00:18:44;;;;;;;6.22;4.15;;;;;;;;;;6191115;28;20050;-81
2021/10/13 00:21:46;;;;;;;11.05;6.38;;;;;;;;;;6188740;28;20042;-80
2021/10/13 00:24:47;;;;;;;9.55;4.80;;;;;;;;;;6206774;28;20049;-82
2021/10/13 00:27:49;;;;;;;7.47;4.15;;;;;;;;;;6222327;28;20047;-81
2021/10/13 00:30:51;;;;;;;9.65;4.25;;;;;;;;;;6222924;28;20479;-81
2021/10/13 00:33:52;;;;;;;10.45;4.57;;;;;;;;;;6208249;28;20051;-82
2021/10/13 00:36:54;;;;;;;13.38;6.68;;;;;;;;;;6149748;28;20515;-81
2021/10/13 00:39:56;;;;;;;9.57;5.13;;;;;;;;;;6183871;28;20049;-81
2021/10/13 00:42:57;;;;;;;10.65;5.35;;;;;;;;;;6189507;28;20049;-81
2021/10/13 00:45:59;;;;;;;8.32;5.07;;;;;;;;;;6195311;28;20532;-80
2021/10/13 00:49:01;;;;;;;27.50;11.68;;;;;;;;;;6193926;28;20042;-81
2021/10/13 00:52:04;;;;;;;9.70;5.05;;;;;;;;;;6195543;28;20081;-81
2021/10/13 00:55:08;;;;;;;8.65;4.75;;;;;;;;;;6195072;28;20510;-81
2021/10/13 00:58:10;;;;;;;8.40;4.45;;;;;;;;;;6188834;28;20046;-80
2021/10/13 01:01:24;;;;;;;7.28;4.57;;;;;;;;;;6225948;28;20049;-82
2021/10/13 01:04:28;;;;;;;7.30;3.85;;;;;;;;;;6225795;28;20050;-80
2021/10/13 01:07:49;;;;;;;7.60;4.18;;;;;;;;;;6225988;28;20046;-81
2021/10/13 01:11:16;;;;;;;13.15;5.75;;;;;;;;;;6225518;28;20038;-81
2021/10/13 01:14:23;;;;;;;9.82;5.20;;;;;;;;;;6192268;28;20050;-81
2021/10/13 01:17:40;;;;;;;9.07;4.75;;;;;;;;;;6225820;28;20057;-83
2021/10/13 01:21:02;;;;;;;7.18;4.13;;;;;;;;;;6202189;28;20189;-80
2021/10/13 01:24:20;;;;;;;8.68;4.50;;;;;;;;;;6151942;28;20051;-81
2021/10/13 01:27:49;;;;;;;9.48;5.35;;;;;;;;;;6200414;28;20046;-82
2021/10/13 01:30:59;;;;;;;9.05;4.85;;;;;;;;;;6192677;28;20046;-81
2021/10/13 01:34:10;;;;;;;8.65;3.90;;;;;;;;;;6204124;28;20047;-81
2021/10/13 01:37:19;;;;;;;6.43;3.30;;;;;;;;;;6194474;28;20052;-81
2021/10/13 01:40:25;;;;;;;6.38;3.42;;;;;;;;;;6192355;28;20050;-82
2021/10/13 01:43:31;;;;;;;7.47;4.28;;;;;;;;;;6189860;28;20046;-82
2021/10/13 01:46:33;;;;;;;7.43;3.65;;;;;;;;;;6223260;28;20050;-81
2021/10/13 01:49:36;;;;;;;7.47;3.97;;;;;;;;;;6206935;28;20046;-82
2021/10/13 01:52:38;;;;;;;9.27;4.07;;;;;;;;;;6223039;28;20046;-82
2021/10/13 01:55:42;;;;;;;8.73;4.05;;;;;;;;;;6192443;28;20038;-81
2021/10/13 01:58:46;;;;;;;8.15;4.43;;;;;;;;;;6193415;28;20515;-80
2021/10/13 02:01:50;;;;;;;10.57;4.65;;;;;;;;;;6192971;28;20121;-81
2021/10/13 02:04:52;;;;;;;8.77;4.47;;;;;;;;;;6208051;28;20609;-81
2021/10/13 02:07:55;;;;;;;7.82;4.30;;;;;;;;;;6193463;28;20035;-81
2021/10/13 02:10:59;;;;;;;7.45;3.80;;;;;;;;;;6225711;28;20131;-81
2021/10/13 02:14:20;;;;;;;8.80;4.40;;;;;;;;;;6192652;28;20043;-82
2021/10/13 02:17:24;;;;;;;9.10;4.55;;;;;;;;;;6192117;28;20097;-82
2021/10/13 02:20:28;;;;;;;8.75;4.20;;;;;;;;;;6191948;28;20042;-81
2021/10/13 02:23:32;;;;;;;7.95;4.35;;;;;;;;;;6192237;28;20039;-81
2021/10/13 02:26:44;;;;;;;7.15;4.07;;;;;;;;;;6175862;28;20049;-82
2021/10/13 02:29:45;;;;;;;8.07;4.25;;;;;;;;;;6193875;28;20050;-82
2021/10/13 02:32:48;;;;;;;7.90;4.53;;;;;;;;;;6224407;28;20038;-82
2021/10/13 02:35:51;;;;;;;7.55;4.03;;;;;;;;;;6192684;28;20096;-83
2021/10/13 02:38:52;;;;;;;10.15;4.57;;;;;;;;;;6192963;28;20046;-83
2021/10/13 02:41:54;;;;;;;7.82;4.85;;;;;;;;;;6194621;28;20045;-83
2021/10/13 02:44:56;;;;;;;9.77;4.88;;;;;;;;;;6193427;28;20462;-83
2021/10/13 02:48:05;;;;;;;11.38;6.05;;;;;;;;;;6194886;28;20419;-83
2021/10/13 02:51:14;;;;;;;10.75;5.88;;;;;;;;;;6212056;28;20050;-80
2021/10/13 02:54:28;;;;;;;12.18;6.88;;;;;;;;;;6208365;28;20505;-80
2021/10/13 02:57:38;;;;;;;17.20;7.60;;;;;;;;;;6207327;28;20046;-81
2021/10/13 03:00:40;;;;;;;13.75;7.32;;;;;;;;;;6191978;28;20121;-81
2021/10/13 03:03:49;;;;;;;13.05;7.32;;;;;;;;;;6192206;28;20043;-81
2021/10/13 03:07:03;;;;;;;10.75;6.22;;;;;;;;;;6192058;28;20052;-81
2021/10/13 03:10:05;;;;;;;;;;;;;;;;;;6193164;28;20042;-81
2021/10/13 03:13:07;;;;;;;9.68;5.45;;;;;;;;;;6174785;28;20375;-82
2021/10/13 03:16:09;;;;;;;11.18;5.45;;;;;;;;;;6191932;28;20046;-82
2021/10/13 03:19:11;;;;;;;12.30;5.80;;;;;;;;;;6191268;28;20114;-81
2021/10/13 03:22:14;;;;;;;13.30;6.43;;;;;;;;;;6193215;28;20046;-82
2021/10/13 03:25:24;;;;;;;16.03;8.87;;;;;;;;;;6191277;28;20056;-82
2021/10/13 03:28:26;;;;;;;15.40;8.38;;;;;;;;;;6189188;28;20532;-83
2021/10/13 03:31:27;;;;;;;13.02;6.90;;;;;;;;;;6193749;28;20044;-81
2021/10/13 03:34:29;;;;;;;10.85;5.65;;;;;;;;;;6190234;28;20109;-80
2021/10/13 03:37:31;;;;;;;12.98;7.03;;;;;;;;;;6193802;28;20078;-80
2021/10/13 03:40:34;;;;;;;10.63;6.07;;;;;;;;;;6229242;28;20443;-82
2021/10/13 03:43:47;;;;;;;11.75;5.65;;;;;;;;;;6212125;28;20046;-81
2021/10/13 03:46:48;;;;;;;10.67;6.07;;;;;;;;;;6198190;28;20066;-81
2021/10/13 03:49:50;;;;;;;9.50;5.43;;;;;;;;;;6206968;28;20445;-80
2021/10/13 03:52:52;;;;;;;9.88;5.50;;;;;;;;;;6212858;28;20046;-79
2021/10/13 03:55:53;;;;;;;9.85;5.47;;;;;;;;;;6193336;28;20048;-79
2021/10/13 03:58:55;;;;;;;12.93;5.97;;;;;;;;;;6191093;28;20047;-82
2021/10/13 04:01:56;;;;;;;10.95;5.82;;;;;;;;;;6193880;28;20047;-80
2021/10/13 04:04:58;;;;;;;11.68;5.97;;;;;;;;;;6221061;28;20042;-80
2021/10/13 04:08:00;;;;;;;11.05;5.55;;;;;;;;;;6194556;28;20411;-80
2021/10/13 04:11:02;;;;;;;10.85;6.07;;;;;;;;;;6193508;28;20042;-80
2021/10/13 04:14:04;;;;;;;12.00;6.15;;;;;;;;;;6223693;28;20070;-79
2021/10/13 04:17:05;;;;;;;12.88;6.50;;;;;;;;;;6211680;28;20042;-80
2021/10/13 04:20:10;;;;;;;11.32;6.55;;;;;;;;;;6196205;28;20495;-81
2021/10/13 04:23:12;;;;;;;14.23;6.78;;;;;;;;;;6211559;28;20049;-79
2021/10/13 04:26:13;;;;;;;11.63;6.13;;;;;;;;;;6194588;28;20406;-81
2021/10/13 04:29:15;;;;;;;11.82;6.38;;;;;;;;;;6194912;28;20054;-82
2021/10/13 04:32:20;;;;;;;10.80;5.72;;;;;;;;;;6192558;28;20046;-80
2021/10/13 04:35:22;;;;;;;10.90;5.22;;;;;;;;;;6202946;28;20047;-81
2021/10/13 04:38:24;;;;;;;8.73;5.57;;;;;;;;;;6192168;28;20043;-82
2021/10/13 04:41:25;;;;;;;9.93;5.70;;;;;;;;;;6196333;28;20042;-81
2021/10/13 04:44:27;;;;;;;11.88;6.35;;;;;;;;;;6196001;28;20042;-81
2021/10/13 04:47:28;;;;;;;11.85;7.03;;;;;;;;;;6225367;28;20050;-82
2021/10/13 04:50:30;;;;;;;11.68;6.38;;;;;;;;;;6194528;28;20074;-81
2021/10/13 04:53:35;;;;;;;10.70;5.88;;;;;;;;;;6197171;28;20046;-81
2021/10/13 04:56:37;;;;;;;11.82;5.97;;;;;;;;;;6181422;28;20483;-84
2021/10/13 04:59:39;;;;;;;12.20;6.18;;;;;;;;;;6174151;28;20046;-83
2021/10/13 05:02:41;;;;;;;12.65;6.40;;;;;;;;;;6176829;28;20053;-83
2021/10/13 05:05:42;;;;;;;13.95;6.43;;;;;;;;;;6199121;28;20129;-82
2021/10/13 05:08:44;;;;;;;12.95;6.13;;;;;;;;;;6197530;28;20049;-83
2021/10/13 05:11:46;;;;;;;12.25;6.80;;;;;;;;;;6229344;28;20042;-82
2021/10/13 05:14:47;;;;;;;20.20;9.60;;;;;;;;;;6197783;28;20125;-82
2021/10/13 05:17:49;;;;;;;20.80;9.63;;;;;;;;;;6212627;28;20516;-81
2021/10/13 05:20:51;;;;;;;17.02;9.35;;;;;;;;;;6196779;28;20113;-83
2021/10/13 05:23:53;;;;;;;16.27;7.03;;;;;;;;;;6198449;28;20038;-83
2021/10/13 05:26:56;;;;;;;11.05;5.85;;;;;;;;;;6172886;28;20047;-81
2021/10/13 05:29:57;;;;;;;11.20;6.07;;;;;;;;;;6175380;28;20050;-82
2021/10/13 05:32:59;;;;;;;10.20;6.32;;;;;;;;;;6197277;28;20084;-81
2021/10/13 05:36:00;;;;;;;12.80;6.20;;;;;;;;;;6197311;28;20459;-79
2021/10/13 05:39:13;;;;;;;10.95;6.20;;;;;;;;;;6193633;28;20046;-82
2021/10/13 05:42:14;;;;;;;15.55;6.72;;;;;;;;;;6191476;28;20724;-79
2021/10/13 05:45:16;;;;;;;12.38;6.25;;;;;;;;;;6193069;28;20105;-79
2021/10/13 05:48:18;;;;;;;12.65;6.45;;;;;;;;;;6188919;28;20185;-81
2021/10/13 05:51:19;;;;;;;10.68;5.93;;;;;;;;;;6192673;28;20085;-78
2021/10/13 05:54:21;;;;;;;22.45;12.35;;;;;;;;;;6192098;28;20573;-79
2021/10/13 05:57:22;;;;;;;19.67;8.80;;;;;;;;;;6185022;28;20046;-81
2021/10/13 06:00:27;;;;;;;18.40;8.10;;;;;;;;;;6187975;28;20049;-80
2021/10/13 06:03:29;;;;;;;14.48;7.60;;;;;;;;;;6189069;28;20145;-81
2021/10/13 06:06:31;;;;;;;14.85;7.95;;;;;;;;;;6192424;28;20066;-79
2021/10/13 06:09:32;;;;;;;15.55;8.00;;;;;;;;;;6191298;28;20078;-80
2021/10/13 06:12:34;;;;;;;16.73;8.18;;;;;;;;;;6192114;28;20395;-79
2021/10/13 06:15:36;;;;;;;18.65;8.65;;;;;;;;;;6192782;28;20098;-79
2021/10/13 06:18:38;;;;;;;18.85;9.27;;;;;;;;;;6179695;28;20043;-79
2021/10/13 06:21:39;;;;;;;18.08;8.77;;;;;;;;;;6168706;28;20047;-79
2021/10/13 06:24:41;;;;;;;20.75;8.50;;;;;;;;;;6182434;28;20034;-80
2021/10/13 06:27:43;;;;;;;17.10;8.18;;;;;;;;;;6186045;28;20054;-78
2021/10/13 06:30:45;;;;;;;21.58;10.30;;;;;;;;;;6190361;28;20049;-79
2021/10/13 06:33:47;;;;;;;28.42;10.25;;;;;;;;;;6185588;28;20045;-80
2021/10/13 06:36:48;;;;;;;25.13;9.52;;;;;;;;;;6192985;28;20500;-79
2021/10/13 06:39:51;;;;;;;24.27;9.48;;;;;;;;;;6192687;28;20052;-79
2021/10/13 06:42:53;;;;;;;28.85;10.93;;;;;;;;;;6220023;28;20129;-77
2021/10/13 06:45:54;;;;;;;26.60;11.43;;;;;;;;;;6191651;28;20537;-79
2021/10/13 06:48:56;;;;;;;26.55;11.05;;;;;;;;;;6189715;28;20053;-79
2021/10/13 06:51:58;;;;;;;24.08;10.73;;;;;;;;;;6191468;28;20084;-79
2021/10/13 06:54:59;;;;;;;24.25;11.57;;;;;;;;;;6192422;28;20062;-79
2021/10/13 06:58:01;;;;;;;38.63;16.00;;;;;;;;;;6190194;28;20049;-79
2021/10/13 07:01:03;;;;;;;21.08;10.35;;;;;;;;;;6191345;28;20053;-80
2021/10/13 07:04:04;;;;;;;23.60;11.02;;;;;;;;;;6189595;28;20065;-79
2021/10/13 07:07:06;;;;;;;25.70;11.23;;;;;;;;;;6182338;28;20050;-78
2021/10/13 07:10:08;;;;;;;22.58;10.93;;;;;;;;;;6172885;28;20043;-79
2021/10/13 07:13:10;;;;;;;26.33;11.80;;;;;;;;;;6149738;28;20047;-79
2021/10/13 07:16:12;;;;;;;29.08;11.75;;;;;;;;;;6152605;28;20062;-78
2021/10/13 07:19:13;;;;;;;29.13;12.57;;;;;;;;;;6187090;28;20408;-80
2021/10/13 07:22:15;;;;;;;27.10;9.90;;;;;;;;;;6188543;28;20054;-77
2021/10/13 07:25:22;;;;;;;22.70;10.50;;;;;;;;;;6192394;28;20107;-80
2021/10/13 07:28:26;;;;;;;23.02;10.43;;;;;;;;;;6174477;28;20054;-78
2021/10/13 07:31:28;;;;;;;29.05;11.07;;;;;;;;;;6181960;28;20504;-78
2021/10/13 07:34:29;;;;;;;21.00;9.55;;;;;;;;;;6183586;28;20512;-79
2021/10/13 07:37:32;;;;;;;21.48;10.02;;;;;;;;;;6186641;28;20057;-81
2021/10/13 07:40:33;;;;;;;19.77;8.68;;;;;;;;;;6193470;28;20049;-81
2021/10/13 07:43:35;;;;;;;19.48;9.48;;;;;;;;;;6192355;28;20043;-81
2021/10/13 07:46:37;;;;;;;18.92;8.73;;;;;;;;;;6194469;28;20056;-79
2021/10/13 07:49:39;;;;;;;18.30;8.23;;;;;;;;;;6194760;28;20407;-77
2021/10/13 07:52:41;;;;;;;20.10;8.10;;;;;;;;;;6196880;28;20724;-80
2021/10/13 07:55:42;;;;;;;18.35;8.13;;;;;;;;;;6193310;28;20052;-80
2021/10/13 07:58:44;;;;;;;16.58;8.20;;;;;;;;;;6193855;28;20121;-79
2021/10/13 08:01:46;;;;;;;19.08;8.77;;;;;;;;;;6195442;28;20046;-79
2021/10/13 08:04:47;;;;;;;15.63;7.63;;;;;;;;;;6191644;28;20896;-80
2021/10/13 08:07:49;;;;;;;15.90;8.20;;;;;;;;;;6195095;28;20555;-79
2021/10/13 08:10:51;;;;;;;16.65;8.65;;;;;;;;;;6193940;28;20046;-79
2021/10/13 08:13:52;;;;;;;13.48;6.35;;;;;;;;;;6192906;28;20246;-80
2021/10/13 08:16:57;;;;;;;13.38;6.97;;;;;;;;;;6194401;28;20066;-80
2021/10/13 08:20:03;;;;;;;11.90;6.00;;;;;;;;;;6192381;28;20835;-80
2021/10/13 08:23:04;;;;;;;11.77;6.20;;;;;;;;;;6195508;28;20052;-80
2021/10/13 08:26:06;;;;;;;12.82;6.28;;;;;;;;;;6195829;28;20041;-79
2021/10/13 08:29:07;;;;;;;10.15;5.85;;;;;;;;;;6193334;28;20500;-78
2021/10/13 08:32:09;;;;;;;10.50;5.68;;;;;;;;;;6191475;28;20039;-79
2021/10/13 08:35:11;;;;;;;13.43;6.28;;;;;;;;;;6194167;28;20042;-79
2021/10/13 08:38:12;;;;;;;9.95;5.70;;;;;;;;;;6193971;28;20109;-80
2021/10/13 08:41:14;;;;;;;11.15;6.07;;;;;;;;;;6193546;28;20049;-80
2021/10/13 08:44:16;;;;;;;12.05;6.13;;;;;;;;;;6192046;28;20042;-81
2021/10/13 08:47:17;;;;;;;11.65;6.28;;;;;;;;;;6193165;28;20504;-79
2021/10/13 08:50:20;;;;;;;9.73;5.25;;;;;;;;;;6194287;28;20177;-80
2021/10/13 08:53:24;;;;;;;10.37;4.93;;;;;;;;;;6193048;28;20136;-81
2021/10/13 08:56:26;;;;;;;10.77;4.88;;;;;;;;;;6191409;28;20054;-79
2021/10/13 08:59:47;;;;;;;8.23;4.93;;;;;;;;;;6191592;28;20042;-78
2021/10/13 09:02:49;;;;;;;10.95;5.47;;;;;;;;;;6185216;28;20066;-82
2021/10/13 09:05:51;;;;;;;9.80;4.80;;;;;;;;;;6192034;28;20053;-81
2021/10/13 09:09:03;;;;;;;10.27;5.50;;;;;;;;;;6193802;28;20592;-80
2021/10/13 09:12:05;;;;;;;10.20;5.15;;;;;;;;;;6191035;28;20077;-78
2021/10/13 09:15:11;;;;;;;10.20;5.22;;;;;;;;;;6193577;28;20046;-78
2021/10/13 09:18:14;;;;;;;11.50;6.00;;;;;;;;;;6193350;28;20054;-78
2021/10/13 09:21:16;;;;;;;10.90;5.22;;;;;;;;;;6195359;28;20053;-81
2021/10/13 09:24:19;;;;;;;14.88;5.55;;;;;;;;;;6193483;28;20046;-80
2021/10/13 09:27:31;;;;;;;10.98;5.63;;;;;;;;;;6192518;28;20046;-82
2021/10/13 09:30:37;;;;;;;12.50;5.70;;;;;;;;;;6194829;28;20043;-81
2021/10/13 09:33:52;;;;;;;14.18;5.50;;;;;;;;;;6193430;28;20457;-82
2021/10/13 09:37:01;;;;;;;10.35;5.75;;;;;;;;;;6190575;28;20070;-80
2021/10/13 09:40:06;;;;;;;12.18;5.47;;;;;;;;;;6193572;28;20048;-83
2021/10/13 09:43:25;;;;;;;11.75;5.53;;;;;;;;;;6192708;28;20045;-81
2021/10/13 09:46:32;;;;;;;8.63;4.95;;;;;;;;;;6193765;28;20053;-81
2021/10/13 09:49:39;;;;;;;11.18;4.88;;;;;;;;;;6193275;28;20068;-79
2021/10/13 09:52:41;;;;;;;11.32;5.05;;;;;;;;;;6224446;28;20102;-78
2021/10/13 09:55:43;;;;;;;9.40;5.57;;;;;;;;;;6191768;28;20134;-81
2021/10/13 09:58:44;;;;;;;11.18;5.03;;;;;;;;;;6192380;28;20044;-81
2021/10/13 10:01:49;;;;;;;7.30;4.63;;;;;;;;;;6193901;28;20046;-80
2021/10/13 10:04:53;;;;;;;10.70;4.75;;;;;;;;;;6191551;28;20046;-78
2021/10/13 10:08:05;;;;;;;10.52;5.10;;;;;;;;;;6193914;28;20052;-80
2021/10/13 10:11:07;;;;;;;7.20;4.20;;;;;;;;;;6190571;28;20046;-80
2021/10/13 10:14:31;;;;;;;8.25;4.50;;;;;;;;;;6193050;28;20039;-81
2021/10/13 10:17:40;;;;;;;7.53;3.90;;;;;;;;;;6191528;28;20051;-77
2021/10/13 10:20:42;;;;;;;9.05;4.82;;;;;;;;;;6186302;28;20047;-79
2021/10/13 10:23:55;;;;;;;8.10;3.67;;;;;;;;;;6191539;28;20507;-80
2021/10/13 10:27:18;;;;;;;6.57;3.88;;;;;;;;;;6192892;28;20695;-80
2021/10/13 10:30:20;;;;;;;6.93;3.50;;;;;;;;;;6192393;28;20038;-80
2021/10/13 10:33:23;;;;;;;5.85;3.28;;;;;;;;;;6190854;28;20043;-79
2021/10/13 10:36:25;;;;;;;6.55;3.65;;;;;;;;;;6192458;28;20050;-80
2021/10/13 10:39:53;;;;;;;7.25;3.75;;;;;;;;;;6223917;28;20048;-79
2021/10/13 10:42:57;;;;;;;6.20;3.47;;;;;;;;;;6189159;28;20042;-80
2021/10/13 10:45:59;;;;;;;4.45;2.53;;;;;;;;;;6193274;28;20041;-77
2021/10/13 10:49:01;;;;;;;4.75;2.53;;;;;;;;;;6190688;28;20038;-79
2021/10/13 10:52:03;;;;;;;5.50;2.70;;;;;;;;;;6188867;28;20042;-78
2021/10/13 10:55:07;;;;;;;4.83;2.93;;;;;;;;;;6191639;28;20054;-77
2021/10/13 10:58:22;;;;;;;4.75;2.80;;;;;;;;;;6192326;28;20122;-79
2021/10/13 11:01:33;;;;;;;6.25;2.78;;;;;;;;;;6192157;28;20668;-78
2021/10/13 11:04:36;;;;;;;7.78;3.55;;;;;;;;;;6188249;28;20046;-79
2021/10/13 11:07:58;;;;;;;7.00;3.03;;;;;;;;;;6192542;28;20061;-78
2021/10/13 11:11:12;;;;;;;7.93;3.40;;;;;;;;;;6189259;28;20138;-80
2021/10/13 11:14:23;;;;;;;9.20;3.55;;;;;;;;;;6172198;28;20128;-77
2021/10/13 11:17:25;;;;;;;8.68;3.92;;;;;;;;;;6184081;28;20054;-79
2021/10/13 11:20:27;;;;;;;9.90;3.92;;;;;;;;;;6177055;28;20055;-78
2021/10/13 11:23:28;;;;;;;10.13;4.93;;;;;;;;;;6186436;28;20043;-78
2021/10/13 11:26:30;;;;;;;9.45;4.55;;;;;;;;;;6176731;28;20401;-80
2021/10/13 11:29:34;;;;;;;9.32;4.68;;;;;;;;;;6182102;28;20042;-79
2021/10/13 11:32:40;;;;;;;11.88;5.35;;;;;;;;;;6184428;28;20113;-77
2021/10/13 11:35:44;;;;;;;12.13;6.05;;;;;;;;;;6179003;28;20081;-77
2021/10/13 11:38:45;;;;;;;12.05;5.30;;;;;;;;;;6175560;28;20046;-77
2021/10/13 11:41:47;;;;;;;12.25;5.78;;;;;;;;;;6187972;28;20049;-77
2021/10/13 11:44:51;;;;;;;12.35;5.25;;;;;;;;;;6192089;28;20046;-82
2021/10/13 11:47:53;;;;;;;13.95;6.07;;;;;;;;;;6168864;28;20058;-79
2021/10/13 11:51:00;;;;;;;11.43;6.00;;;;;;;;;;6191421;28;20046;-80
2021/10/13 11:54:02;;;;;;;10.35;5.80;;;;;;;;;;6191219;28;20487;-79
2021/10/13 11:57:04;;;;;;;13.10;6.00;;;;;;;;;;6189460;28;20389;-78
2021/10/13 12:00:15;;;;;;;11.32;5.82;;;;;;;;;;6192497;28;20050;-79
2021/10/13 12:03:18;;;;;;;12.63;5.95;;;;;;;;;;6194199;28;20190;-79
2021/10/13 12:06:20;;;;;;;10.45;5.50;;;;;;;;;;6196429;28;20048;-77
2021/10/13 12:09:21;;;;;;;14.88;6.22;;;;;;;;;;6195490;28;20084;-78
2021/10/13 12:12:23;;;;;;;10.85;5.55;;;;;;;;;;6192969;28;20073;-80
2021/10/13 12:15:28;;;;;;;13.05;6.00;;;;;;;;;;6195182;28;20466;-79
2021/10/13 12:18:45;;;;;;;13.70;5.97;;;;;;;;;;6188481;28;20069;-79
2021/10/13 12:21:58;;;;;;;12.70;5.80;;;;;;;;;;6195589;28;20043;-79
2021/10/13 12:24:59;;;;;;;13.63;6.85;;;;;;;;;;6194247;28;20126;-79
2021/10/13 12:28:01;;;;;;;13.50;6.43;;;;;;;;;;6193585;28;20072;-78
2021/10/13 12:31:05;;;;;;;12.48;6.63;;;;;;;;;;6195161;28;20058;-78
2021/10/13 12:34:15;;;;;;;11.85;5.80;;;;;;;;;;6190652;28;20046;-80
2021/10/13 12:37:17;;;;;;;10.20;5.68;;;;;;;;;;6183919;28;20052;-80
2021/10/13 12:40:19;;;;;;;13.02;7.07;;;;;;;;;;6174646;28;20046;-79
2021/10/13 12:43:22;;;;;;;9.13;5.18;;;;;;;;;;6188201;28;20054;-80
2021/10/13 12:46:32;;;;;;;11.00;5.50;;;;;;;;;;6191245;28;20046;-79
2021/10/13 12:49:37;;;;;;;11.02;4.95;;;;;;;;;;6190108;28;20095;-79
2021/10/13 12:52:39;;;;;;;10.82;5.60;;;;;;;;;;6191106;28;20045;-78
2021/10/13 12:55:40;;;;;;;15.00;6.03;;;;;;;;;;6195725;28;20523;-78
2021/10/13 12:58:43;;;;;;;11.52;5.18;;;;;;;;;;6179288;28;20051;-79
2021/10/13 13:01:44;;;;;;;10.68;5.03;;;;;;;;;;6194315;28;20050;-80
2021/10/13 13:04:47;;;;;;;9.77;5.10;;;;;;;;;;6192307;28;20038;-80
2021/10/13 13:07:49;;;;;;;12.55;6.57;;;;;;;;;;6186610;28;20042;-80
2021/10/13 13:10:51;;;;;;;11.10;5.28;;;;;;;;;;6170291;28;20053;-79
2021/10/13 13:13:53;;;;;;;10.45;5.22;;;;;;;;;;6189370;28;20050;-79
2021/10/13 13:16:55;;;;;;;10.82;5.35;;;;;;;;;;6189826;28;20047;-79
2021/10/13 13:19:56;;;;;;;12.30;5.40;;;;;;;;;;6189386;28;20054;-80
2021/10/13 13:22:58;;;;;;;13.02;5.25;;;;;;;;;;6183953;28;20046;-79
2021/10/13 13:26:00;;;;;;;10.02;4.75;;;;;;;;;;6187652;28;20054;-79
2021/10/13 13:29:01;;;;;;;12.07;4.65;;;;;;;;;;6172931;28;20081;-78
2021/10/13 13:32:03;;;;;;;12.07;4.70;;;;;;;;;;6185916;28;20042;-80
2021/10/13 13:35:23;;;;;;;12.05;4.88;;;;;;;;;;6180271;28;20884;-80
2021/10/13 13:38:25;;;;;;;11.45;4.65;;;;;;;;;;6186011;28;20053;-80
2021/10/13 13:41:27;;;;;;;11.95;5.78;;;;;;;;;;6183638;28;20073;-80
2021/10/13 13:44:28;;;;;;;9.65;5.32;;;;;;;;;;6161163;28;20931;-80
2021/10/13 13:47:32;;;;;;;10.90;5.47;;;;;;;;;;6207977;28;20070;-80
2021/10/13 13:50:34;;;;;;;;;;;;;;;;;;6183552;28;20532;-80
2021/10/13 13:53:36;;;;;;;13.27;5.20;;;;;;;;;;6184677;28;19930;-80
2021/10/13 13:56:37;;;;;;;13.25;5.10;;;;;;;;;;6186841;28;20042;-78
2021/10/13 13:59:39;;;;;;;14.95;5.80;;;;;;;;;;6187266;28;20042;-80
2021/10/13 14:02:41;;;;;;;11.35;5.47;;;;;;;;;;6188844;28;20038;-81
2021/10/13 14:05:43;;;;;;;12.95;5.60;;;;;;;;;;6191794;28;20566;-80
2021/10/13 14:08:44;;;;;;;12.35;5.50;;;;;;;;;;6192653;28;20046;-80
2021/10/13 14:11:50;;;;;;;11.68;5.82;;;;;;;;;;6189869;28;20070;-80
2021/10/13 14:14:51;;;;;;;12.00;6.20;;;;;;;;;;6186797;28;20566;-81
2021/10/13 14:17:53;;;;;;;14.43;5.68;;;;;;;;;;6205395;28;20050;-80
2021/10/13 14:20:56;;;;;;;12.85;6.65;;;;;;;;;;6222589;28;20495;-79
2021/10/13 14:23:57;;;;;;;13.20;5.68;;;;;;;;;;6190097;28;20046;-78
2021/10/13 14:26:59;;;;;;;13.82;5.40;;;;;;;;;;6190223;28;20080;-79
2021/10/13 14:30:01;;;;;;;14.23;5.68;;;;;;;;;;6190337;28;20479;-82
2021/10/13 14:33:03;;;;;;;13.63;5.72;;;;;;;;;;6184055;28;20476;-81
2021/10/13 14:36:06;;;;;;;10.25;5.45;;;;;;;;;;6190610;28;20510;-80
2021/10/13 14:39:07;;;;;;;9.27;4.88;;;;;;;;;;6193015;28;20482;-79
2021/10/13 14:42:12;;;;;;;10.10;5.63;;;;;;;;;;6182927;28;22012;-80
2021/10/13 14:45:17;;;;;;;10.50;5.03;;;;;;;;;;6205302;28;20054;-79
2021/10/13 14:48:18;;;;;;;12.73;5.60;;;;;;;;;;6183529;28;20061;-80
2021/10/13 14:51:20;;;;;;;11.27;5.40;;;;;;;;;;6181465;28;20038;-79
2021/10/13 14:54:22;;;;;;;10.55;5.47;;;;;;;;;;6183247;28;20053;-80
2021/10/13 14:57:24;;;;;;;15.38;5.72;;;;;;;;;;6174501;28;20534;-78
2021/10/13 15:00:26;;;;;;;11.32;5.75;;;;;;;;;;6183145;28;20049;-78
2021/10/13 15:03:28;;;;;;;13.98;6.68;;;;;;;;;;6167463;28;20086;-80
2021/10/13 15:06:29;;;;;;;10.95;6.03;;;;;;;;;;6183394;28;20084;-80
2021/10/13 15:09:31;;;;;;;12.90;7.15;;;;;;;;;;6178025;28;20046;-80
2021/10/13 15:12:34;;;;;;;13.33;6.07;;;;;;;;;;6177821;28;20042;-78
2021/10/13 15:15:36;;;;;;;12.05;5.93;;;;;;;;;;6208967;28;20038;-80
2021/10/13 15:18:38;;;;;;;13.02;5.85;;;;;;;;;;6182128;28;20093;-77
2021/10/13 15:21:41;;;;;;;12.30;5.57;;;;;;;;;;6186113;28;20112;-80
2021/10/13 15:24:43;;;;;;;11.90;6.25;;;;;;;;;;6181820;28;20046;-80
2021/10/13 15:27:46;;;;;;;10.07;5.57;;;;;;;;;;6184917;28;20518;-79
2021/10/13 15:30:48;;;;;;;10.32;5.75;;;;;;;;;;6186162;28;20050;-80
2021/10/13 15:33:50;;;;;;;10.45;5.60;;;;;;;;;;6186061;28;20043;-79
2021/10/13 15:36:53;;;;;;;14.18;6.53;;;;;;;;;;6191707;28;20097;-80
2021/10/13 15:39:54;;;;;;;11.40;6.30;;;;;;;;;;6181009;28;20047;-78
2021/10/13 15:42:56;;;;;;;10.07;6.38;;;;;;;;;;6184427;28;20061;-80
2021/10/13 15:46:00;;;;;;;15.35;7.25;;;;;;;;;;6192184;28;20129;-78
2021/10/13 15:49:03;;;;;;;17.55;8.35;;;;;;;;;;6188376;28;20050;-81
2021/10/13 15:52:07;;;;;;;16.90;7.88;;;;;;;;;;6191015;28;20117;-78
2021/10/13 15:55:11;;;;;;;17.17;7.50;;;;;;;;;;6206748;28;20415;-77
2021/10/13 15:58:14;;;;;;;17.17;7.82;;;;;;;;;;6189664;28;20051;-79
2021/10/13 16:01:16;;;;;;;13.93;6.97;;;;;;;;;;6192439;28;20061;-79
2021/10/13 16:04:18;;;;;;;15.68;7.22;;;;;;;;;;6182718;28;20058;-78
2021/10/13 16:07:20;;;;;;;17.63;7.20;;;;;;;;;;6192512;28;20053;-79
2021/10/13 16:10:22;;;;;;;14.32;7.05;;;;;;;;;;6185746;28;20053;-78
2021/10/13 16:13:23;;;;;;;14.98;6.90;;;;;;;;;;6199003;28;20099;-78
2021/10/13 16:16:25;;;;;;;13.90;7.60;;;;;;;;;;6202812;28;20054;-78
2021/10/13 16:19:27;;;;;;;15.82;6.93;;;;;;;;;;6197819;28;20124;-78
2021/10/13 16:22:29;;;;;;;11.00;6.35;;;;;;;;;;6196060;28;20043;-77
2021/10/13 16:25:31;;;;;;;12.43;6.80;;;;;;;;;;6198294;28;20046;-79
2021/10/13 16:28:32;;;;;;;13.68;7.30;;;;;;;;;;6195621;28;20077;-80
2021/10/13 16:31:34;;;;;;;16.67;6.90;;;;;;;;;;6199089;28;20051;-79
2021/10/13 16:34:37;;;;;;;13.45;7.15;;;;;;;;;;6196058;28;20594;-78
2021/10/13 16:37:39;;;;;;;13.90;7.10;;;;;;;;;;6193519;28;20042;-80
2021/10/13 16:40:42;;;;;;;15.00;7.05;;;;;;;;;;6194262;28;20514;-79
2021/10/13 16:43:44;;;;;;;16.90;7.65;;;;;;;;;;6190059;28;20038;-80
2021/10/13 16:46:48;;;;;;;14.88;7.15;;;;;;;;;;6192880;28;20038;-79
2021/10/13 16:49:50;;;;;;;15.02;7.00;;;;;;;;;;6188801;28;20502;-80
2021/10/13 16:52:51;;;;;;;15.60;7.30;;;;;;;;;;6222003;28;20054;-79
2021/10/13 16:55:53;;;;;;;14.02;6.95;;;;;;;;;;6193159;28;20081;-78
2021/10/13 16:58:55;;;;;;;15.98;6.88;;;;;;;;;;6189465;28;20516;-79
2021/10/13 17:01:57;;;;;;;17.25;7.10;;;;;;;;;;6189555;28;20050;-77
2021/10/13 17:04:58;;;;;;;14.88;7.07;;;;;;;;;;6192495;28;20049;-78
2021/10/13 17:08:01;;;;;;;18.60;7.63;;;;;;;;;;6190615;28;20047;-76
2021/10/13 17:11:02;;;;;;;16.00;8.07;;;;;;;;;;6194027;28;20053;-81
2021/10/13 17:14:06;;;;;;;;;;;;;;;;;;6188258;28;20042;-83
2021/10/13 17:17:10;;;;;;;16.48;8.30;;;;;;;;;;6192228;28;19977;-81
2021/10/13 17:20:13;;;;;;;13.90;7.18;;;;;;;;;;6172371;28;20049;-80
2021/10/13 17:23:14;;;;;;;18.40;8.55;;;;;;;;;;6171814;28;20070;-80
2021/10/13 17:26:16;;;;;;;21.17;9.27;;;;;;;;;;6171649;28;20524;-80
2021/10/13 17:29:18;;;;;;;17.45;8.23;;;;;;;;;;6196137;28;20046;-80
2021/10/13 17:32:20;;;;;;;15.60;8.77;;;;;;;;;;6197753;28;20050;-79
2021/10/13 17:35:22;;;;;;;16.17;8.10;;;;;;;;;;6207259;28;20732;-80
2021/10/13 17:38:24;;;;;;;18.45;8.85;;;;;;;;;;6193619;28;20064;-82
2021/10/13 17:41:26;;;;;;;18.52;8.52;;;;;;;;;;6194541;28;20558;-82
2021/10/13 17:44:27;;;;;;;17.10;8.05;;;;;;;;;;6169421;28;20534;-79
2021/10/13 17:47:29;;;;;;;17.55;9.77;;;;;;;;;;6206899;28;20180;-78
2021/10/13 17:50:30;;;;;;;21.80;12.23;;;;;;;;;;6193045;28;20042;-81
2021/10/13 17:53:33;;;;;;;21.30;10.80;;;;;;;;;;6193447;28;20057;-80
2021/10/13 17:56:34;;;;;;;17.95;8.68;;;;;;;;;;6179814;28;20097;-80
2021/10/13 17:59:37;;;;;;;17.80;8.60;;;;;;;;;;6193931;28;20197;-80
2021/10/13 18:02:39;;;;;;;;;;;;;;;;;;6185402;28;20042;-81
2021/10/13 18:05:42;;;;;;;20.90;7.85;;;;;;;;;;6222788;28;20064;-80
2021/10/13 18:08:47;;;;;;;18.75;8.30;;;;;;;;;;6191930;28;20050;-81